sensor_id;sensor_type;location;lat;lon;timestamp;temperature;humidity
20315;DHT22;10315;50.958;13.080;2024-01-15T00:00:25;-0.40;99.90
20315;DHT22;10315;50.958;13.080;2024-01-15T00:10:27;-0.40;99.90
20315;DHT22;10315;50.958;13.080;2024-01-15T00:20:29;-0.30;99.90
20315;DHT22;10315;50.958;13.080;2024-01-15T00:30:32;-0.30;99.90
20315;DHT22;10315;50.958;13.080;2024-01-15T00:40:33;-0.50;99.90
20315;DHT22;10315;50.958;13.080;2024-01-15T00:50:37;-0.50;99.90
20315;DHT22;10315;50.958;13.080;2024-01-15T01:00:38;-0.60;99.90
20315;DHT22;10315;50.958;13.080;2024-01-15T01:10:42;-0.60;99.90
20315;DHT22;10315;50.958;13.080;2024-01-15T01:20:43;-0.50;99.90
20315;DHT22;10315;50.958;13.080;2024-01-15T01:30:46;-0.50;99.90
20315;DHT22;10315;50.958;13.080;2024-01-15T01:40:48;-0.60;99.90
20315;DHT22;10315;50.958;13.080;2024-01-15T01:50:50;-0.60;99.90
20315;DHT22;10315;50.958;13.080;2024-01-15T02:00:52;-0.70;99.90
20315;DHT22;10315;50.958;13.080;2024-01-15T02:10:55;-0.70;99.90
20315;DHT22;10315;50.958;13.080;2024-01-15T02:20:57;-0.70;99.90
20315;DHT22;10315;50.958;13.080;2024-01-15T02:30:59;-0.70;99.90
20315;DHT22;10315;50.958;13.080;2024-01-15T02:41:01;-0.80;99.90
20315;DHT22;10315;50.958;13.080;2024-01-15T02:51:04;-0.90;99.90
20315;DHT22;10315;50.958;13.080;2024-01-15T03:01:06;-0.90;99.90
20315;DHT22;10315;50.958;13.080;2024-01-15T03:11:08;-1.00;99.90
20315;DHT22;10315;50.958;13.080;2024-01-15T03:21:10;-1.00;99.90
20315;DHT22;10315;50.958;13.080;2024-01-15T03:31:13;-1.10;99.90
20315;DHT22;10315;50.958;13.080;2024-01-15T03:41:14;-1.20;99.90
20315;DHT22;10315;50.958;13.080;2024-01-15T03:51:18;-1.30;99.90
20315;DHT22;10315;50.958;13.080;2024-01-15T04:01:19;-1.40;99.90
20315;DHT22;10315;50.958;13.080;2024-01-15T04:11:22;-1.20;99.90
20315;DHT22;10315;50.958;13.080;2024-01-15T04:21:23;-1.20;99.90
20315;DHT22;10315;50.958;13.080;2024-01-15T04:31:26;-1.20;99.90
20315;DHT22;10315;50.958;13.080;2024-01-15T04:41:28;-1.10;99.90
20315;DHT22;10315;50.958;13.080;2024-01-15T04:51:30;-1.30;99.90
20315;DHT22;10315;50.958;13.080;2024-01-15T05:01:32;-1.30;99.90
20315;DHT22;10315;50.958;13.080;2024-01-15T05:11:35;-1.40;99.90
20315;DHT22;10315;50.958;13.080;2024-01-15T05:21:36;-1.40;99.90
20315;DHT22;10315;50.958;13.080;2024-01-15T05:31:39;-1.30;99.90
20315;DHT22;10315;50.958;13.080;2024-01-15T05:41:41;-1.30;99.90
20315;DHT22;10315;50.958;13.080;2024-01-15T05:51:44;-1.50;99.90
20315;DHT22;10315;50.958;13.080;2024-01-15T06:01:45;-1.70;99.90
20315;DHT22;10315;50.958;13.080;2024-01-15T06:11:48;-1.50;99.90
20315;DHT22;10315;50.958;13.080;2024-01-15T06:21:49;-1.50;99.90
20315;DHT22;10315;50.958;13.080;2024-01-15T06:31:52;-1.50;99.90
20315;DHT22;10315;50.958;13.080;2024-01-15T06:41:54;-1.50;99.90
20315;DHT22;10315;50.958;13.080;2024-01-15T06:51:57;-1.60;99.90
20315;DHT22;10315;50.958;13.080;2024-01-15T07:01:58;-1.50;99.90
20315;DHT22;10315;50.958;13.080;2024-01-15T07:12:02;-1.60;99.90
20315;DHT22;10315;50.958;13.080;2024-01-15T07:22:03;-1.50;99.90
20315;DHT22;10315;50.958;13.080;2024-01-15T07:32:06;-1.50;99.90
20315;DHT22;10315;50.958;13.080;2024-01-15T07:42:08;-1.50;99.90
20315;DHT22;10315;50.958;13.080;2024-01-15T07:52:11;-1.50;99.90
20315;DHT22;10315;50.958;13.080;2024-01-15T08:02:13;-1.50;99.90
20315;DHT22;10315;50.958;13.080;2024-01-15T08:12:16;-1.50;99.90
20315;DHT22;10315;50.958;13.080;2024-01-15T08:22:18;-1.40;99.90
20315;DHT22;10315;50.958;13.080;2024-01-15T08:32:20;-1.30;99.90
20315;DHT22;10315;50.958;13.080;2024-01-15T08:42:22;-1.30;99.90
20315;DHT22;10315;50.958;13.080;2024-01-15T08:52:25;-1.20;99.90
20315;DHT22;10315;50.958;13.080;2024-01-15T09:02:26;-1.20;99.90
20315;DHT22;10315;50.958;13.080;2024-01-15T09:12:29;-0.90;99.90
20315;DHT22;10315;50.958;13.080;2024-01-15T09:22:31;-0.60;99.90
20315;DHT22;10315;50.958;13.080;2024-01-15T09:32:33;-0.30;99.90
20315;DHT22;10315;50.958;13.080;2024-01-15T09:42:35;-0.50;99.90
20315;DHT22;10315;50.958;13.080;2024-01-15T09:52:38;-0.10;99.90
20315;DHT22;10315;50.958;13.080;2024-01-15T10:02:40;-0.30;99.90
20315;DHT22;10315;50.958;13.080;2024-01-15T10:12:43;-0.30;99.90
20315;DHT22;10315;50.958;13.080;2024-01-15T10:22:45;-0.20;99.90
20315;DHT22;10315;50.958;13.080;2024-01-15T10:32:50;-0.30;99.90
20315;DHT22;10315;50.958;13.080;2024-01-15T10:42:58;-0.20;99.90
20315;DHT22;10315;50.958;13.080;2024-01-15T10:53:01;-0.20;99.90
20315;DHT22;10315;50.958;13.080;2024-01-15T11:03:03;-0.30;99.90
20315;DHT22;10315;50.958;13.080;2024-01-15T11:13:09;0.00;99.90
20315;DHT22;10315;50.958;13.080;2024-01-15T11:23:10;0.10;99.90
20315;DHT22;10315;50.958;13.080;2024-01-15T11:33:33;0.10;99.90
20315;DHT22;10315;50.958;13.080;2024-01-15T11:43:35;0.30;99.90
20315;DHT22;10315;50.958;13.080;2024-01-15T11:53:40;0.20;99.90
20315;DHT22;10315;50.958;13.080;2024-01-15T12:03:44;0.20;99.90
20315;DHT22;10315;50.958;13.080;2024-01-15T12:13:49;-0.10;99.90
20315;DHT22;10315;50.958;13.080;2024-01-15T12:23:54;-0.10;99.90
20315;DHT22;10315;50.958;13.080;2024-01-15T12:33:58;-0.10;99.90
20315;DHT22;10315;50.958;13.080;2024-01-15T12:43:59;0.00;99.90
20315;DHT22;10315;50.958;13.080;2024-01-15T12:54:02;-0.10;99.90
20315;DHT22;10315;50.958;13.080;2024-01-15T13:04:04;-0.30;99.90
20315;DHT22;10315;50.958;13.080;2024-01-15T13:14:10;-0.20;99.90
20315;DHT22;10315;50.958;13.080;2024-01-15T13:24:11;-0.30;99.90
20315;DHT22;10315;50.958;13.080;2024-01-15T13:34:15;-0.30;99.90
20315;DHT22;10315;50.958;13.080;2024-01-15T13:44:17;-0.60;99.90
20315;DHT22;10315;50.958;13.080;2024-01-15T13:54:20;-0.80;99.90
20315;DHT22;10315;50.958;13.080;2024-01-15T14:04:22;-0.60;99.90
20315;DHT22;10315;50.958;13.080;2024-01-15T14:14:24;-0.60;99.90
20315;DHT22;10315;50.958;13.080;2024-01-15T14:24:26;-0.80;99.90
20315;DHT22;10315;50.958;13.080;2024-01-15T14:34:29;-0.90;99.90
20315;DHT22;10315;50.958;13.080;2024-01-15T14:44:30;-0.90;99.90
20315;DHT22;10315;50.958;13.080;2024-01-15T14:54:35;-0.80;99.90
20315;DHT22;10315;50.958;13.080;2024-01-15T15:04:36;-0.80;99.90
20315;DHT22;10315;50.958;13.080;2024-01-15T15:14:39;-0.70;99.90
20315;DHT22;10315;50.958;13.080;2024-01-15T15:24:40;-0.70;99.90
20315;DHT22;10315;50.958;13.080;2024-01-15T15:34:43;-0.60;99.90
20315;DHT22;10315;50.958;13.080;2024-01-15T15:44:45;-0.60;99.90
20315;DHT22;10315;50.958;13.080;2024-01-15T15:54:48;-0.80;99.90
20315;DHT22;10315;50.958;13.080;2024-01-15T16:04:50;-0.80;99.90
20315;DHT22;10315;50.958;13.080;2024-01-15T16:14:52;-0.80;99.90
20315;DHT22;10315;50.958;13.080;2024-01-15T16:24:54;-0.80;99.90
20315;DHT22;10315;50.958;13.080;2024-01-15T16:34:57;-0.70;99.90
20315;DHT22;10315;50.958;13.080;2024-01-15T16:44:58;-0.70;99.90
20315;DHT22;10315;50.958;13.080;2024-01-15T16:55:01;-0.80;99.90
20315;DHT22;10315;50.958;13.080;2024-01-15T17:05:03;-0.80;99.90
20315;DHT22;10315;50.958;13.080;2024-01-15T17:15:07;-0.80;99.90
20315;DHT22;10315;50.958;13.080;2024-01-15T17:25:08;-0.90;99.90
20315;DHT22;10315;50.958;13.080;2024-01-15T17:35:11;-1.00;99.90
20315;DHT22;10315;50.958;13.080;2024-01-15T17:45:13;-0.80;99.90
20315;DHT22;10315;50.958;13.080;2024-01-15T17:55:18;-0.90;99.90
20315;DHT22;10315;50.958;13.080;2024-01-15T18:05:19;-1.00;99.90
20315;DHT22;10315;50.958;13.080;2024-01-15T18:15:22;-1.00;99.90
20315;DHT22;10315;50.958;13.080;2024-01-15T18:25:23;-1.00;99.90
20315;DHT22;10315;50.958;13.080;2024-01-15T18:35:26;-0.90;99.90
20315;DHT22;10315;50.958;13.080;2024-01-15T18:45:28;-1.00;99.90
20315;DHT22;10315;50.958;13.080;2024-01-15T18:55:30;-1.10;99.90
20315;DHT22;10315;50.958;13.080;2024-01-15T19:05:32;-1.20;99.90
20315;DHT22;10315;50.958;13.080;2024-01-15T19:15:35;-1.10;99.90
20315;DHT22;10315;50.958;13.080;2024-01-15T19:25:37;-1.00;99.90
20315;DHT22;10315;50.958;13.080;2024-01-15T19:35:39;-0.80;99.90
20315;DHT22;10315;50.958;13.080;2024-01-15T19:45:41;-0.80;99.90
20315;DHT22;10315;50.958;13.080;2024-01-15T19:55:43;-1.00;99.90
20315;DHT22;10315;50.958;13.080;2024-01-15T20:05:45;-1.10;99.90
20315;DHT22;10315;50.958;13.080;2024-01-15T20:15:48;-1.00;99.90
20315;DHT22;10315;50.958;13.080;2024-01-15T20:25:49;-1.10;99.90
20315;DHT22;10315;50.958;13.080;2024-01-15T20:35:53;-1.10;99.90
20315;DHT22;10315;50.958;13.080;2024-01-15T20:45:54;-1.00;99.90
20315;DHT22;10315;50.958;13.080;2024-01-15T20:55:57;-1.00;99.90
20315;DHT22;10315;50.958;13.080;2024-01-15T21:05:59;-1.00;99.90
20315;DHT22;10315;50.958;13.080;2024-01-15T21:16:02;-1.00;99.90
20315;DHT22;10315;50.958;13.080;2024-01-15T21:26:03;-1.00;99.90
20315;DHT22;10315;50.958;13.080;2024-01-15T21:36:06;-1.10;99.90
20315;DHT22;10315;50.958;13.080;2024-01-15T21:46:08;-1.00;99.90
20315;DHT22;10315;50.958;13.080;2024-01-15T21:56:11;-1.20;99.90
20315;DHT22;10315;50.958;13.080;2024-01-15T22:06:12;-1.10;99.90
20315;DHT22;10315;50.958;13.080;2024-01-15T22:16:16;-1.10;99.90
20315;DHT22;10315;50.958;13.080;2024-01-15T22:26:17;-1.10;99.90
20315;DHT22;10315;50.958;13.080;2024-01-15T22:36:20;-1.10;99.90
20315;DHT22;10315;50.958;13.080;2024-01-15T22:46:22;-1.20;99.90
20315;DHT22;10315;50.958;13.080;2024-01-15T22:56:25;-1.30;99.90
20315;DHT22;10315;50.958;13.080;2024-01-15T23:06:27;-1.20;99.90
20315;DHT22;10315;50.958;13.080;2024-01-15T23:16:29;-1.40;99.90
20315;DHT22;10315;50.958;13.080;2024-01-15T23:26:31;-1.30;99.90
20315;DHT22;10315;50.958;13.080;2024-01-15T23:36:34;-1.20;99.90
20315;DHT22;10315;50.958;13.080;2024-01-15T23:46:35;-1.10;99.90
20315;DHT22;10315;50.958;13.080;2024-01-15T23:56:38;-1.20;99.90
